Terminal Aerodrome Forecast
Issued by NWS Norman, OK

Home | Current Version | Previous Version | Text Only | Print | Product List | Glossary On
Versions: 1 2 3 4 5 6 7 8 9 10 11 12 13 14 15 16 17 18 19 20 21 22 23 24 25 26 27 28 29 30 31 32 33 34 35 36
000
FTUS44 KOUN 270228 AAA
TAFOKC
TAF AMD
KOKC 270228Z 2702/2724 15009KT P6SM SCT020 BKN040 OVC090
      TEMPO 2702/2705 VRB30KT 2SM TSRA BKN020 OVC035CB
     FM271000 15010KT P6SM BKN040
      TEMPO 2710/2714 3SM BR BKN010
     FM271400 18010KT P6SM BKN080=

USA.gov is the U.S. government's official web portal to all federal, state and local government web resources and services.